This is the latest recevied weather packets stored in our database for station/object KB4NWJ. If no packets are shown the sender has not sent any weather packets the latest 10 day(s).
| Time | Temp. | Humidity | Pressure | Rain* | Wind** | Luminosity | Snow |
|---|---|---|---|---|---|---|---|
| 1777234956 | 26.11° C | 57% | 1013.2 hPa | 0 mm | - | 550 W/m² | - |
| 1777234652 | 25.56° C | 60% | 1013.4 hPa | 0 mm | - | 566 W/m² | - |
| 1777234347 | 26.67° C | 57% | 1013.3 hPa | 0 mm | - | 589 W/m² | - |
| 1777234043 | 26.67° C | 58% | 1013.5 hPa | 0 mm | - | 575 W/m² | - |
| 1777233740 | 25.56° C | 55% | 1013.4 hPa | 0 mm | - | 100 W/m² | - |
| 1777233435 | 26.11° C | 54% | 1013.3 hPa | 0 mm | - | 610 W/m² | - |
| 1777233134 | 26.11° C | 57% | 1013.5 hPa | 0 mm | - | 630 W/m² | - |
| 1777232831 | 26.11° C | 56% | 1013.4 hPa | 0 mm | - | 582 W/m² | - |
| 1777232530 | 26.67° C | 56% | 1013.6 hPa | 0 mm | - | 615 W/m² | - |
| 1777232228 | 25.56° C | 60% | 1013.5 hPa | 0 mm | - | 623 W/m² | - |
| 1777231923 | 25.56° C | 59% | 1013.5 hPa | 0 mm | - | 598 W/m² | - |
| 1777231621 | 25.56° C | 63% | 1013.7 hPa | 0 mm | - | 590 W/m² | - |
| 1777231316 | 25.56° C | 60% | 1013.7 hPa | 0 mm | - | 518 W/m² | - |
| 1777231012 | 26.67° C | 60% | 1013.7 hPa | 0 mm | - | 659 W/m² | - |
| 1777230709 | 26.67° C | 63% | 1013.7 hPa | 0 mm | - | 699 W/m² | - |
| 1777230404 | 25.56° C | 68% | 1013.8 hPa | 0 mm | - | 663 W/m² | - |
| 1777230100 | 25° C | 64% | 1013.9 hPa | 0 mm | - | 365 W/m² | - |
| 1777229797 | 26.11° C | 65% | 1014 hPa | 0 mm | - | 304 W/m² | - |
| 1777229494 | 26.11° C | 66% | 1014 hPa | 0 mm | - | 694 W/m² | - |
| 1777229191 | 23.89° C | 73% | 1014 hPa | 0 mm | - | 658 W/m² | - |
| 1777228888 | 24.44° C | 72% | 1014.2 hPa | 0 mm | - | 121 W/m² | - |
| 1777228584 | 24.44° C | 71% | 1014.2 hPa | 0 mm | - | 261 W/m² | - |
| 1777228280 | 25.56° C | 66% | 1014 hPa | 0 mm | - | 186 W/m² | - |
| 1777227975 | 25.56° C | 67% | 1014.1 hPa | 0 mm | - | 740 W/m² | - |
| 1777227675 | 25.56° C | 70% | 1014.2 hPa | 0 mm | - | 768 W/m² | - |
* Rain latest hour (hover to see other rain measurements)
** Current wind speed in m/s (hover to see current wind gust speed)